Time;durP1;ratioP1;P1;durP2;ratioP2;P2;SDS_P1;SDS_P2;PMS_P1;PMS_P2;Temp;Humidity;BMP_temperature;BMP_pressure;BME280_temperature;BME280_humidity;BME280_pressure;Samples;Min_cycle;Max_cycle;Signal;HPM_P1;HPM_P2
2023/03/11 00:00:26;;;;;;;2.22;2.08;;;;;;;;;;10368101;28;20240;-78
2023/03/11 00:05:29;;;;;;;2.67;2.30;;;;;;;;;;10359293;28;20231;-79
2023/03/11 00:10:32;;;;;;;3.25;3.00;;;;;;;;;;10342350;28;20223;-82
2023/03/11 00:15:33;;;;;;;2.03;1.92;;;;;;;;;;10333171;28;20227;-80
2023/03/11 00:20:36;;;;;;;1.15;1.10;;;;;;;;;;10347087;28;20651;-78
2023/03/11 00:25:37;;;;;;;2.80;1.70;;;;;;;;;;10323509;28;20239;-79
2023/03/11 00:30:39;;;;;;;1.30;1.30;;;;;;;;;;10353888;28;20223;-78
2023/03/11 00:35:41;;;;;;;2.25;1.60;;;;;;;;;;10362510;28;20240;-79
2023/03/11 00:40:43;;;;;;;3.28;2.05;;;;;;;;;;10325455;28;20219;-80
2023/03/11 00:45:44;;;;;;;1.60;1.60;;;;;;;;;;10332831;28;20729;-78
2023/03/11 00:50:46;;;;;;;2.13;1.98;;;;;;;;;;10341985;28;20223;-80
2023/03/11 00:55:47;;;;;;;3.50;2.55;;;;;;;;;;10330550;28;20882;-77
2023/03/11 01:00:48;;;;;;;2.90;2.45;;;;;;;;;;10343252;28;20227;-81
2023/03/11 01:05:49;;;;;;;2.03;1.92;;;;;;;;;;10346017;28;20227;-80
2023/03/11 01:10:51;;;;;;;2.05;1.85;;;;;;;;;;10338167;28;20230;-81
2023/03/11 01:15:53;;;;;;;2.00;1.90;;;;;;;;;;10360063;28;20655;-79
2023/03/11 01:20:55;;;;;;;2.60;2.00;;;;;;;;;;10349202;28;20351;-80
2023/03/11 01:25:56;;;;;;;2.13;2.00;;;;;;;;;;10340511;28;23794;-79
2023/03/11 01:30:59;;;;;;;1.70;1.38;;;;;;;;;;10353755;28;21864;-78
2023/03/11 01:36:01;;;;;;;1.98;1.88;;;;;;;;;;10345040;28;20223;-85
2023/03/11 01:41:02;;;;;;;1.52;1.40;;;;;;;;;;10325819;28;20219;-80
2023/03/11 01:46:22;;;;;;;1.90;1.77;;;;;;;;;;10346889;28;20760;-84
2023/03/11 01:51:26;;;;;;;1.33;1.25;;;;;;;;;;10323345;28;20847;-80
2023/03/11 01:56:28;;;;;;;1.92;1.83;;;;;;;;;;10342780;28;20768;-82
2023/03/11 02:01:29;;;;;;;2.20;2.10;;;;;;;;;;10337817;28;20227;-80
2023/03/11 02:06:32;;;;;;;1.73;1.60;;;;;;;;;;10348201;28;20228;-79
2023/03/11 02:11:33;;;;;;;2.08;1.88;;;;;;;;;;10341077;28;20961;-80
2023/03/11 02:16:36;;;;;;;1.98;1.92;;;;;;;;;;10326063;28;20220;-80
2023/03/11 02:21:37;;;;;;;2.83;2.63;;;;;;;;;;10323763;28;20245;-82
2023/03/11 02:26:57;;;;;;;3.58;2.38;;;;;;;;;;10347275;28;20231;-80
2023/03/11 02:32:01;;;;;;;3.38;3.08;;;;;;;;;;10338369;28;20310;-79
2023/03/11 02:37:10;;;;;;;4.17;2.57;;;;;;;;;;10354807;28;20310;-79
2023/03/11 02:42:17;;;;;;;1.90;1.80;;;;;;;;;;10329582;28;20224;-82
2023/03/11 02:47:18;;;;;;;1.88;1.80;;;;;;;;;;10323112;28;20611;-77
2023/03/11 02:52:19;;;;;;;2.10;1.95;;;;;;;;;;10323323;28;20219;-81
2023/03/11 02:57:20;;;;;;;2.05;1.95;;;;;;;;;;10347505;28;20219;-79
2023/03/11 03:02:22;;;;;;;2.10;1.90;;;;;;;;;;10356491;28;20243;-80
2023/03/11 03:07:23;;;;;;;1.88;1.50;;;;;;;;;;10336434;28;20608;-86
2023/03/11 03:12:24;;;;;;;3.92;2.30;;;;;;;;;;10334687;28;20759;-81
2023/03/11 03:17:26;;;;;;;5.28;2.90;;;;;;;;;;10346328;28;20225;-82
2023/03/11 03:22:28;;;;;;;4.38;3.65;;;;;;;;;;10323177;28;20216;-82
2023/03/11 03:27:30;;;;;;;3.55;2.47;;;;;;;;;;10351683;28;20254;-81
2023/03/11 03:32:31;;;;;;;3.50;3.20;;;;;;;;;;10341717;28;20831;-80
2023/03/11 03:37:33;;;;;;;7.32;4.35;;;;;;;;;;10350416;28;20359;-82
2023/03/11 03:42:38;;;;;;;6.32;4.07;;;;;;;;;;10350487;28;20580;-76
2023/03/11 03:47:40;;;;;;;6.15;4.60;;;;;;;;;;10342466;28;20227;-81
2023/03/11 03:52:41;;;;;;;11.32;5.53;;;;;;;;;;10350393;28;20212;-78
2023/03/11 03:57:42;;;;;;;11.45;6.28;;;;;;;;;;10331783;28;20227;-80
2023/03/11 04:02:46;;;;;;;7.50;5.47;;;;;;;;;;10342100;28;20216;-80
2023/03/11 04:07:57;;;;;;;8.18;5.40;;;;;;;;;;10343761;28;21108;-82
2023/03/11 04:12:58;;;;;;;9.02;5.32;;;;;;;;;;10348530;28;20247;-79
2023/03/11 04:17:59;;;;;;;6.55;5.35;;;;;;;;;;10342142;28;20310;-79
2023/03/11 04:23:01;;;;;;;9.32;6.13;;;;;;;;;;10342910;28;20223;-80
2023/03/11 04:28:02;;;;;;;11.15;6.03;;;;;;;;;;10327144;28;20212;-78
2023/03/11 04:33:04;;;;;;;12.50;6.10;;;;;;;;;;10331836;28;21317;-78
2023/03/11 04:38:06;;;;;;;9.25;6.40;;;;;;;;;;10356482;28;21386;-78
2023/03/11 04:43:07;;;;;;;14.68;7.00;;;;;;;;;;10360601;28;20978;-80
2023/03/11 04:48:08;;;;;;;9.47;6.00;;;;;;;;;;10352013;28;20306;-80
2023/03/11 04:53:11;;;;;;;7.90;5.30;;;;;;;;;;10353678;28;20254;-79
2023/03/11 04:58:12;;;;;;;10.07;5.57;;;;;;;;;;10337139;28;20808;-77
2023/03/11 05:03:14;;;;;;;11.10;6.03;;;;;;;;;;10349919;28;20322;-78
2023/03/11 05:08:15;;;;;;;8.27;5.20;;;;;;;;;;10334251;28;20269;-78
2023/03/11 05:13:16;;;;;;;8.23;5.65;;;;;;;;;;10350412;28;20310;-80
2023/03/11 05:18:17;;;;;;;8.63;5.47;;;;;;;;;;10357824;28;20753;-80
2023/03/11 05:23:19;;;;;;;7.47;5.85;;;;;;;;;;10341823;28;20331;-76
2023/03/11 05:28:20;;;;;;;6.70;5.70;;;;;;;;;;10358374;28;20335;-79
2023/03/11 05:33:25;;;;;;;10.25;6.82;;;;;;;;;;10360150;28;20251;-77
2023/03/11 05:38:27;;;;;;;7.75;5.43;;;;;;;;;;10354467;28;21197;-77
2023/03/11 05:43:29;;;;;;;7.22;5.50;;;;;;;;;;10333856;28;20227;-80
2023/03/11 05:48:30;;;;;;;9.90;5.47;;;;;;;;;;10336149;28;20382;-81
2023/03/11 05:53:31;;;;;;;9.30;6.03;;;;;;;;;;10338057;28;20780;-79
2023/03/11 05:58:33;;;;;;;7.93;4.72;;;;;;;;;;10333231;28;20776;-77
2023/03/11 06:03:34;;;;;;;7.70;4.82;;;;;;;;;;10329111;28;20355;-81
2023/03/11 06:08:35;;;;;;;8.20;5.63;;;;;;;;;;10332355;28;20274;-79
2023/03/11 06:13:38;;;;;;;7.55;5.22;;;;;;;;;;10341508;28;20218;-78
2023/03/11 06:18:39;;;;;;;10.77;5.57;;;;;;;;;;10324478;28;20227;-79
2023/03/11 06:23:40;;;;;;;10.88;6.18;;;;;;;;;;10329460;28;20231;-82
2023/03/11 06:28:42;;;;;;;10.13;6.07;;;;;;;;;;10342168;28;20298;-83
2023/03/11 06:33:43;;;;;;;8.45;5.18;;;;;;;;;;10308919;28;20231;-80
2023/03/11 06:38:50;;;;;;;11.15;6.10;;;;;;;;;;10328278;28;20230;-79
2023/03/11 06:43:51;;;;;;;8.38;5.05;;;;;;;;;;10320365;28;20772;-80
2023/03/11 06:48:53;;;;;;;11.57;5.38;;;;;;;;;;10333706;28;20219;-81
2023/03/11 06:53:56;;;;;;;8.70;5.47;;;;;;;;;;10320476;28;20392;-83
2023/03/11 06:58:59;;;;;;;13.68;5.22;;;;;;;;;;10336048;28;20270;-81
2023/03/11 07:04:04;;;;;;;7.38;4.82;;;;;;;;;;10312709;28;20341;-81
2023/03/11 07:09:07;;;;;;;5.45;4.45;;;;;;;;;;10334690;28;20239;-81
2023/03/11 07:14:10;;;;;;;9.70;5.70;;;;;;;;;;10322277;28;20334;-83
2023/03/11 07:19:15;;;;;;;8.30;5.18;;;;;;;;;;10333991;28;20231;-82
2023/03/11 07:24:16;;;;;;;8.07;5.68;;;;;;;;;;10336431;28;20321;-81
2023/03/11 07:29:18;;;;;;;10.73;5.22;;;;;;;;;;10322306;28;20652;-83
2023/03/11 07:34:19;;;;;;;11.85;4.82;;;;;;;;;;10351339;28;21141;-84
2023/03/11 07:39:20;;;;;;;8.13;5.03;;;;;;;;;;10360537;28;20219;-80
2023/03/11 07:44:21;;;;;;;9.02;4.57;;;;;;;;;;10332373;28;20226;-83
2023/03/11 07:49:22;;;;;;;10.23;5.20;;;;;;;;;;10325973;28;20222;-83
2023/03/11 07:54:23;;;;;;;4.32;3.97;;;;;;;;;;10349782;28;20219;-84
2023/03/11 07:59:25;;;;;;;5.03;4.05;;;;;;;;;;10357905;28;20510;-85
2023/03/11 08:04:26;;;;;;;3.72;3.42;;;;;;;;;;10346755;28;20224;-83
2023/03/11 08:09:27;;;;;;;4.68;4.18;;;;;;;;;;10347642;28;20627;-83
2023/03/11 08:14:28;;;;;;;5.72;3.10;;;;;;;;;;10333383;28;20659;-85
2023/03/11 08:19:29;;;;;;;4.03;3.50;;;;;;;;;;10336267;28;20226;-83
2023/03/11 08:24:30;;;;;;;7.75;3.78;;;;;;;;;;10326537;28;20227;-83
2023/03/11 08:29:31;;;;;;;3.38;3.15;;;;;;;;;;10353371;28;20215;-84
2023/03/11 08:34:33;;;;;;;5.35;3.92;;;;;;;;;;10327536;28;21614;-84
2023/03/11 08:39:34;;;;;;;6.20;3.70;;;;;;;;;;10335940;28;20334;-79
2023/03/11 08:44:35;;;;;;;3.28;3.03;;;;;;;;;;10348620;28;20972;-81
2023/03/11 08:49:37;;;;;;;5.35;3.33;;;;;;;;;;10357517;28;20694;-83
2023/03/11 08:54:38;;;;;;;5.72;3.47;;;;;;;;;;10309633;28;20223;-83
2023/03/11 08:59:39;;;;;;;3.63;2.72;;;;;;;;;;10340694;28;20706;-82
2023/03/11 09:04:40;;;;;;;3.45;3.15;;;;;;;;;;10339964;28;20239;-82
2023/03/11 09:09:42;;;;;;;2.72;2.30;;;;;;;;;;10334720;28;20792;-83
2023/03/11 09:14:43;;;;;;;3.17;2.95;;;;;;;;;;10335149;28;20764;-85
2023/03/11 09:19:44;;;;;;;3.65;2.97;;;;;;;;;;10346036;28;20244;-84
2023/03/11 09:24:45;;;;;;;2.78;2.55;;;;;;;;;;10369242;28;20613;-84
2023/03/11 09:29:46;;;;;;;3.05;2.83;;;;;;;;;;10376230;28;20223;-84
2023/03/11 09:34:47;;;;;;;3.92;2.90;;;;;;;;;;10354421;28;20258;-81
2023/03/11 09:39:48;;;;;;;2.83;2.53;;;;;;;;;;10353143;28;20223;-81
2023/03/11 09:44:58;;;;;;;3.60;2.78;;;;;;;;;;10375395;28;20234;-82
2023/03/11 09:50:10;;;;;;;6.70;2.80;;;;;;;;;;10352105;28;20222;-80
2023/03/11 09:55:21;;;;;;;1.98;1.88;;;;;;;;;;10355902;28;20226;-82
2023/03/11 10:00:23;;;;;;;3.05;2.80;;;;;;;;;;10359796;28;20232;-82
2023/03/11 10:05:28;;;;;;;2.55;2.10;;;;;;;;;;10369824;28;20843;-82
2023/03/11 10:10:32;;;;;;;4.40;2.38;;;;;;;;;;10336340;28;20798;-81
2023/03/11 10:15:36;;;;;;;2.28;2.17;;;;;;;;;;10345116;28;20278;-81
2023/03/11 10:20:49;;;;;;;2.00;1.90;;;;;;;;;;10348975;28;20254;-83
2023/03/11 10:26:06;;;;;;;4.65;2.78;;;;;;;;;;10339022;28;20314;-82
2023/03/11 10:31:17;;;;;;;2.63;2.42;;;;;;;;;;10377481;28;20246;-82
2023/03/11 10:36:23;;;;;;;2.28;2.17;;;;;;;;;;10361602;28;20227;-82
2023/03/11 10:41:44;;;;;;;2.17;1.98;;;;;;;;;;10359418;28;20239;-82
2023/03/11 10:46:45;;;;;;;2.85;2.75;;;;;;;;;;10340126;28;20351;-79
2023/03/11 10:51:50;;;;;;;1.85;1.75;;;;;;;;;;10358610;28;20215;-82
2023/03/11 10:56:53;;;;;;;2.60;2.40;;;;;;;;;;10374203;28;21006;-81
2023/03/11 11:01:56;;;;;;;2.55;2.35;;;;;;;;;;10345971;28;20223;-80
2023/03/11 11:06:58;;;;;;;2.63;2.10;;;;;;;;;;10365879;28;20223;-83
2023/03/11 11:12:02;;;;;;;1.95;1.88;;;;;;;;;;10381342;28;20222;-82
2023/03/11 11:17:03;;;;;;;1.98;1.88;;;;;;;;;;10372050;28;20804;-82
2023/03/11 11:22:05;;;;;;;2.65;1.98;;;;;;;;;;10357383;28;20415;-80
2023/03/11 11:27:17;;;;;;;2.78;2.58;;;;;;;;;;10355799;28;20222;-82
2023/03/11 11:32:20;;;;;;;4.03;2.75;;;;;;;;;;10340476;28;20247;-81
2023/03/11 11:37:22;;;;;;;5.53;2.10;;;;;;;;;;10337596;28;20226;-80
2023/03/11 11:42:24;;;;;;;2.42;2.22;;;;;;;;;;10356927;28;20271;-82
2023/03/11 11:47:32;;;;;;;2.22;2.05;;;;;;;;;;10355708;28;20626;-79
2023/03/11 11:52:39;;;;;;;2.10;2.00;;;;;;;;;;10355628;28;20224;-80
2023/03/11 11:57:40;;;;;;;1.65;1.55;;;;;;;;;;10365182;28;20278;-77
2023/03/11 12:02:50;;;;;;;1.67;1.45;;;;;;;;;;10320294;28;20223;-78
2023/03/11 12:08:02;;;;;;;2.65;1.20;;;;;;;;;;10346545;28;20223;-79
2023/03/11 12:13:04;;;;;;;1.73;1.63;;;;;;;;;;10364448;28;20281;-78
2023/03/11 12:18:10;;;;;;;1.90;1.13;;;;;;;;;;10341351;28;20224;-77
2023/03/11 12:23:19;;;;;;;1.20;1.10;;;;;;;;;;10330526;28;20718;-77
2023/03/11 12:28:26;;;;;;;2.33;1.55;;;;;;;;;;10345752;28;20296;-75
2023/03/11 12:33:27;;;;;;;2.97;1.55;;;;;;;;;;10344801;28;20223;-74
2023/03/11 12:38:33;;;;;;;1.05;0.80;;;;;;;;;;10341397;28;20235;-76
2023/03/11 12:43:33;;;;;;;0.70;0.70;;;;;;;;;;10351908;28;20234;-77
2023/03/11 12:48:41;;;;;;;2.15;0.70;;;;;;;;;;10323918;28;20230;-76
2023/03/11 12:53:42;;;;;;;0.85;0.85;;;;;;;;;;10360747;28;20219;-78
2023/03/11 12:58:53;;;;;;;0.90;0.90;;;;;;;;;;10349950;28;20223;-77
2023/03/11 13:04:02;;;;;;;1.40;1.20;;;;;;;;;;10365493;28;20224;-79
2023/03/11 13:09:03;;;;;;;1.00;1.00;;;;;;;;;;10357420;28;20251;-78
2023/03/11 13:14:10;;;;;;;0.85;0.70;;;;;;;;;;10358688;28;20215;-76
2023/03/11 13:19:27;;;;;;;0.73;0.73;;;;;;;;;;10351535;28;20227;-79
2023/03/11 13:24:28;;;;;;;1.23;0.50;;;;;;;;;;10333166;28;20311;-76
2023/03/11 13:29:29;;;;;;;1.02;0.55;;;;;;;;;;10353704;28;20895;-75
2023/03/11 13:34:48;;;;;;;0.77;0.77;;;;;;;;;;10365379;28;20219;-74
2023/03/11 13:39:49;;;;;;;0.80;0.80;;;;;;;;;;10340321;28;20322;-77
2023/03/11 13:44:50;;;;;;;0.60;0.60;;;;;;;;;;10334403;28;20223;-79
2023/03/11 13:50:09;;;;;;;0.52;0.52;;;;;;;;;;10319457;28;20403;-78
2023/03/11 13:55:29;;;;;;;1.27;0.70;;;;;;;;;;10337487;28;20338;-75
2023/03/11 14:00:33;;;;;;;0.68;0.68;;;;;;;;;;10329500;28;20235;-77
2023/03/11 14:05:35;;;;;;;0.60;0.60;;;;;;;;;;10349909;28;20243;-78
2023/03/11 14:10:36;;;;;;;2.45;0.68;;;;;;;;;;10322967;28;20223;-78
2023/03/11 14:15:45;;;;;;;0.80;0.80;;;;;;;;;;10342393;28;20636;-77
2023/03/11 14:20:47;;;;;;;2.90;0.70;;;;;;;;;;10343862;28;20314;-79
2023/03/11 14:25:57;;;;;;;1.60;0.80;;;;;;;;;;10363676;28;20975;-80
2023/03/11 14:30:59;;;;;;;0.75;0.60;;;;;;;;;;10327320;28;20261;-79
2023/03/11 14:36:06;;;;;;;0.70;0.70;;;;;;;;;;10347692;28;20216;-78
2023/03/11 14:41:12;;;;;;;1.38;0.50;;;;;;;;;;10356283;28;20211;-79
2023/03/11 14:46:17;;;;;;;0.50;0.50;;;;;;;;;;10361187;28;20231;-81
2023/03/11 14:51:28;;;;;;;1.10;0.60;;;;;;;;;;10338453;28;20357;-82
2023/03/11 14:56:31;;;;;;;0.90;0.60;;;;;;;;;;10369281;28;20713;-77
2023/03/11 15:01:35;;;;;;;0.30;0.30;;;;;;;;;;10340942;28;20285;-78
2023/03/11 15:06:37;;;;;;;2.20;0.50;;;;;;;;;;10352586;28;20295;-78
2023/03/11 15:11:46;;;;;;;6.03;0.60;;;;;;;;;;10372435;28;20669;-79
2023/03/11 15:16:47;;;;;;;2.67;0.43;;;;;;;;;;10356484;28;20297;-79
2023/03/11 15:21:49;;;;;;;0.47;0.47;;;;;;;;;;10347280;28;20247;-78
2023/03/11 15:26:54;;;;;;;0.30;0.30;;;;;;;;;;10337589;28;20224;-77
2023/03/11 15:31:56;;;;;;;0.30;0.30;;;;;;;;;;10342280;28;20220;-79
2023/03/11 15:37:19;;;;;;;1.48;0.30;;;;;;;;;;10346961;28;20219;-78
2023/03/11 15:42:21;;;;;;;1.67;0.40;;;;;;;;;;10351672;28;20221;-75
2023/03/11 15:47:23;;;;;;;0.30;0.30;;;;;;;;;;10345807;28;20987;-77
2023/03/11 15:52:25;;;;;;;0.20;0.20;;;;;;;;;;10367993;28;20310;-76
2023/03/11 15:57:27;;;;;;;1.55;0.30;;;;;;;;;;10357830;28;20223;-78
2023/03/11 16:02:30;;;;;;;1.95;0.45;;;;;;;;;;10366409;28;20720;-79
2023/03/11 16:07:31;;;;;;;3.22;1.50;;;;;;;;;;10341641;28;20323;-81
2023/03/11 16:12:32;;;;;;;0.47;0.45;;;;;;;;;;10342482;28;20266;-77
2023/03/11 16:17:33;;;;;;;0.70;0.70;;;;;;;;;;10328459;28;20219;-77
2023/03/11 16:22:36;;;;;;;2.47;0.60;;;;;;;;;;10330563;28;20328;-74
2023/03/11 16:27:37;;;;;;;2.47;0.98;;;;;;;;;;10343076;28;20273;-80
2023/03/11 16:32:38;;;;;;;5.45;0.93;;;;;;;;;;10347773;28;20230;-77
2023/03/11 16:37:41;;;;;;;1.10;1.05;;;;;;;;;;10361335;28;20231;-77
2023/03/11 16:42:42;;;;;;;2.85;0.90;;;;;;;;;;10347308;28;20270;-76
2023/03/11 16:47:43;;;;;;;3.85;1.67;;;;;;;;;;10352477;28;20252;-76
2023/03/11 16:52:44;;;;;;;4.78;3.90;;;;;;;;;;10350445;28;20219;-77
2023/03/11 16:57:45;;;;;;;4.35;2.40;;;;;;;;;;10359115;28;20322;-77
2023/03/11 17:02:46;;;;;;;2.05;1.95;;;;;;;;;;10354036;28;20254;-78
2023/03/11 17:07:47;;;;;;;5.85;1.92;;;;;;;;;;10326870;28;20255;-76
2023/03/11 17:12:48;;;;;;;2.88;2.58;;;;;;;;;;10364225;28;20773;-81
2023/03/11 17:17:50;;;;;;;2.28;1.92;;;;;;;;;;10348515;28;20227;-80
2023/03/11 17:22:51;;;;;;;4.28;0.80;;;;;;;;;;10369104;28;20723;-80
2023/03/11 17:27:52;;;;;;;2.25;0.47;;;;;;;;;;10368003;28;20345;-80
2023/03/11 17:32:53;;;;;;;1.42;0.47;;;;;;;;;;10361891;28;20619;-80
2023/03/11 17:37:54;;;;;;;1.50;1.02;;;;;;;;;;10351373;28;20247;-77
2023/03/11 17:42:55;;;;;;;1.20;0.70;;;;;;;;;;10349833;28;20219;-79
2023/03/11 17:47:56;;;;;;;7.85;0.80;;;;;;;;;;10335828;28;22102;-79
2023/03/11 17:52:57;;;;;;;6.95;0.80;;;;;;;;;;10312239;28;20285;-80
2023/03/11 17:57:58;;;;;;;1.00;0.88;;;;;;;;;;10341322;28;20243;-81
2023/03/11 18:02:59;;;;;;;1.95;0.80;;;;;;;;;;10368715;28;22739;-77
2023/03/11 18:08:00;;;;;;;0.70;0.70;;;;;;;;;;10362665;28;20577;-80
2023/03/11 18:13:01;;;;;;;0.65;0.50;;;;;;;;;;10345469;28;20228;-80
2023/03/11 18:18:02;;;;;;;1.38;0.80;;;;;;;;;;10335537;28;20413;-82
2023/03/11 18:23:04;;;;;;;0.98;0.70;;;;;;;;;;10333296;28;20353;-78
2023/03/11 18:28:05;;;;;;;4.82;0.70;;;;;;;;;;10324251;28;20223;-81
2023/03/11 18:33:06;;;;;;;0.60;0.60;;;;;;;;;;10333428;28;20828;-80
2023/03/11 18:38:07;;;;;;;0.43;0.43;;;;;;;;;;10353548;28;20216;-81
2023/03/11 18:43:10;;;;;;;1.40;0.30;;;;;;;;;;10350380;28;20227;-80
2023/03/11 18:48:11;;;;;;;0.93;0.60;;;;;;;;;;10332926;28;20348;-77
2023/03/11 18:53:12;;;;;;;2.10;0.50;;;;;;;;;;10344286;28;21064;-80
2023/03/11 18:58:13;;;;;;;1.13;0.90;;;;;;;;;;10333075;28;20781;-80
2023/03/11 19:03:14;;;;;;;17.30;6.45;;;;;;;;;;10359682;28;20259;-79
2023/03/11 19:08:16;;;;;;;9.63;3.25;;;;;;;;;;10314802;28;20216;-80
2023/03/11 19:13:18;;;;;;;0.77;0.75;;;;;;;;;;10337408;28;20214;-81
2023/03/11 19:18:19;;;;;;;0.88;0.60;;;;;;;;;;10338241;28;20289;-80
2023/03/11 19:23:20;;;;;;;0.80;0.60;;;;;;;;;;10345527;28;20226;-82
2023/03/11 19:28:21;;;;;;;1.48;0.88;;;;;;;;;;10339044;28;20338;-81
2023/03/11 19:33:23;;;;;;;0.80;0.80;;;;;;;;;;10321405;28;20306;-80
2023/03/11 19:38:24;;;;;;;3.30;0.50;;;;;;;;;;10322302;28;20705;-80
2023/03/11 19:43:26;;;;;;;4.40;0.43;;;;;;;;;;10362870;28;20215;-81
2023/03/11 19:48:27;;;;;;;1.70;0.60;;;;;;;;;;10340416;28;20219;-81
2023/03/11 19:53:28;;;;;;;4.50;1.23;;;;;;;;;;10348323;28;20730;-80
2023/03/11 19:58:29;;;;;;;1.20;0.70;;;;;;;;;;10336573;28;20214;-80
2023/03/11 20:03:30;;;;;;;0.50;0.50;;;;;;;;;;10349739;28;20219;-80
2023/03/11 20:08:35;;;;;;;1.50;0.73;;;;;;;;;;10341700;28;20597;-82
2023/03/11 20:13:37;;;;;;;0.73;0.45;;;;;;;;;;10363007;28;20219;-80
2023/03/11 20:18:38;;;;;;;6.13;0.70;;;;;;;;;;10331392;28;20323;-82
2023/03/11 20:23:39;;;;;;;0.50;0.50;;;;;;;;;;10357608;28;20219;-83
2023/03/11 20:28:41;;;;;;;1.15;0.65;;;;;;;;;;10349881;28;20323;-84
2023/03/11 20:33:42;;;;;;;0.88;0.60;;;;;;;;;;10345775;28;20222;-81
2023/03/11 20:38:43;;;;;;;2.45;1.27;;;;;;;;;;10337391;28;20844;-82
2023/03/11 20:43:44;;;;;;;2.90;1.10;;;;;;;;;;10335100;28;20701;-82
2023/03/11 20:48:45;;;;;;;2.53;2.00;;;;;;;;;;10353416;28;20227;-84
2023/03/11 20:53:46;;;;;;;7.00;2.65;;;;;;;;;;10340571;28;20708;-81
2023/03/11 20:58:49;;;;;;;1.17;1.10;;;;;;;;;;10338022;28;20235;-78
2023/03/11 21:03:54;;;;;;;0.82;0.82;;;;;;;;;;10331096;28;20354;-78
2023/03/11 21:08:56;;;;;;;1.40;0.75;;;;;;;;;;10331986;28;20287;-79
2023/03/11 21:13:57;;;;;;;0.90;0.60;;;;;;;;;;10357962;28;20220;-79
2023/03/11 21:19:00;;;;;;;1.55;0.77;;;;;;;;;;10345378;28;20225;-79
2023/03/11 21:24:01;;;;;;;0.73;0.40;;;;;;;;;;10359855;28;20258;-80
2023/03/11 21:29:02;;;;;;;0.45;0.45;;;;;;;;;;10353695;28;20216;-80
2023/03/11 21:34:03;;;;;;;3.25;0.90;;;;;;;;;;10363661;28;20224;-78
2023/03/11 21:39:05;;;;;;;1.65;0.47;;;;;;;;;;10387271;28;20219;-76
2023/03/11 21:44:06;;;;;;;0.60;0.60;;;;;;;;;;10363420;28;20630;-78
2023/03/11 21:49:07;;;;;;;0.40;0.40;;;;;;;;;;10361585;28;20219;-77
2023/03/11 21:54:09;;;;;;;0.98;0.43;;;;;;;;;;10328540;28;20745;-79
2023/03/11 21:59:10;;;;;;;0.85;0.43;;;;;;;;;;10359788;28;20790;-78
2023/03/11 22:04:11;;;;;;;0.68;0.43;;;;;;;;;;10351172;28;20224;-77
2023/03/11 22:09:12;;;;;;;4.43;0.40;;;;;;;;;;10359916;28;21060;-76
2023/03/11 22:14:13;;;;;;;0.52;0.40;;;;;;;;;;10355812;28;20311;-78
2023/03/11 22:19:14;;;;;;;1.33;0.50;;;;;;;;;;10350580;28;20231;-75
2023/03/11 22:24:16;;;;;;;2.20;0.60;;;;;;;;;;10370905;28;20319;-78
2023/03/11 22:29:17;;;;;;;0.80;0.38;;;;;;;;;;10347186;28;20322;-78
2023/03/11 22:34:18;;;;;;;1.30;0.65;;;;;;;;;;10353010;28;20322;-75
2023/03/11 22:39:19;;;;;;;7.20;0.80;;;;;;;;;;10362875;28;20249;-79
2023/03/11 22:44:20;;;;;;;0.43;0.40;;;;;;;;;;10351175;28;20274;-76
2023/03/11 22:49:20;;;;;;;0.55;0.55;;;;;;;;;;10363575;28;20207;-78
2023/03/11 22:54:21;;;;;;;0.50;0.50;;;;;;;;;;10348586;28;20311;-78
2023/03/11 22:59:25;;;;;;;1.77;0.30;;;;;;;;;;10333877;28;20687;-75
2023/03/11 23:04:26;;;;;;;2.63;0.40;;;;;;;;;;10350867;28;20334;-78
2023/03/11 23:09:27;;;;;;;0.40;0.40;;;;;;;;;;10330556;28;20227;-75
2023/03/11 23:14:29;;;;;;;0.50;0.50;;;;;;;;;;10339234;28;20806;-77
2023/03/11 23:19:30;;;;;;;2.63;0.60;;;;;;;;;;10363849;28;20236;-77
2023/03/11 23:24:31;;;;;;;1.90;0.88;;;;;;;;;;10349130;28;20321;-78
2023/03/11 23:29:32;;;;;;;1.02;0.50;;;;;;;;;;10349796;28;20596;-80
2023/03/11 23:34:33;;;;;;;0.50;0.50;;;;;;;;;;10363401;28;20224;-80
2023/03/11 23:39:34;;;;;;;0.90;0.63;;;;;;;;;;10328830;28;20429;-75
2023/03/11 23:44:35;;;;;;;1.67;0.70;;;;;;;;;;10372309;28;20216;-77
2023/03/11 23:49:36;;;;;;;0.50;0.50;;;;;;;;;;10346451;28;20220;-78
2023/03/11 23:54:37;;;;;;;2.05;0.52;;;;;;;;;;10350803;28;20715;-79
2023/03/11 23:59:38;;;;;;;1.38;0.60;;;;;;;;;;10363472;28;20234;-78
